岡山グライダークラブ活動状況掲示板

岡山グライダークラブ
岡山市浦安南町639-1 岡南飛行場
 使用機:シャイベ式 SF25C型 ファルケ   JA2330
      ヴァレンティン式17E型 タイフーン  JA2342
 練習日:毎日曜日  クラブルーム:電話 086-265-1810
この掲示板は岡山グライダークラブの活動状況をお知らせする掲示板です。
!!!この掲示板は投稿規制をしています。!!!
クラブ関連各種情報は 岡山グライダークラブクラブルーム      を       .
  ブリーフイング情報は  岡山グライダークラブブリーフィングルーム  をご覧下さい。 .
※写真はクリックすると拡大して見ることが出来ます。
岡南飛行場へのアクセス等は 岡南飛行場管理事務所 をご覧ください。
クラブの ホームページ ができました。

!!!お待たせしました。新型コロナ感染症の感染が下火になったことから見学者等の受入を再開します。!!!
  注)なお、見学等の際には一般的な感染対策(マスク、ソーシャルディスタンス、黙食等)を順守してください。

 
11月06日
by OGC at 2022/11/6(日) 19:45:19 No.20221106194400  削除コメント
640 x 480 x 74,120バイト
No.1

11月06日
本日の参加者
  会員      11名
  その他     03名


@本日の様子






METAR
RJBK 060000Z VRB01KT 30KM FEW030CU 12/10 Q1024 A3026
RJOB 060000Z 36003KT 320V050 9999 FEW020 13/09 Q1024
RJOT 060000Z VRB02KT 9999 FEW025 14/11 Q1024
RJOA 060000Z 05003KT 020V110 9999 FEW020 12/06 Q1024
TAF
RJOB 052308Z 0600/0706 35004KT 9999 FEW030
     BECMG 0603/0605 23005KT
     BECMG 0608/0610 01005KT
     BECMG 0703/0706 20005KT
RJOT 052306Z 0600/0706 05006KT 9999 FEW035
RJOA 052305Z 0600/0706 14005KT 9999 FEW030
     BECMG 0609/0611 34005KT
     BECMG 0621/0700 14004KT


 本日の天候は晴れ、風も穏やかで視程もよくベストコンディションで
した。今月から見学者、体験搭乗の受入を再開したこともあり、見学者1名、
体験搭乗2名と忙しい一日でした。
 訓練生はNAV訓練や科目訓練を行い、ライセンサーはサーマルを探し
て飛び回っていました。


解散    17:30

1番機  10:30離陸 撤収機  16:45着陸 

SF25C JA2330 ファルケ     10Flt.3h30min  
17E   JA2342 タイフーン    00Flt.0h00min
合計                    10Flt.3h30min

    << 戻る || ホームページ || 最新の掲示板へ